Winigan, MO (63566)

11:24 PM CDT on July 24, 2014 (GMT -0500)
North Central Missouri (KMOBROWN1) Elev 810 ft | 40.04 °N, 93.16 °W | Change Station

Current weather conditions updated 7 seconds ago

Partly Cloudy
Partly Cloudy
68.5 °F
Feels Like 68.5 °F
N
3.0
Wind Variable Wind from SSW
Gusts 6.0 mph

Tomorrow is forecast to be Warmer than today.

Today
High -- | Low -- °F
--% Chance of Precip.
Yesterday
High -- | Low -- °F
Precip. -- in
6:02 AM 8:33 PM
Waning Crescent, 3% visible
Pressure 29.99 in
Visibility 10.0 miles
Clouds Clear
Dew Point 61 °F
Humidity 78%
Rainfall 0.00 in
Snow Depth Not available.
UV 0 out of 12
Pollen 5.70 out of 12
Air Quality Not available.
Flu Activity Not available.
METAR KIRK 250355Z AUTO 17008KT 10SM CLR 19/14 A2999 RMK AO2 SLP153 T01890144

More Conditions Fewer Conditions

Pressure 29.99 in
Visibility 10.0 miles
Clouds Clear
Dew Point 61 °F
Humidity 78%
Rainfall 0.00 in
Snow Depth Not available.
UV 0 out of 12
Pollen 5.70 out of 12
Air Quality Not available.
Flu Activity Not available.
METAR KIRK 250355Z AUTO 17008KT 10SM CLR 19/14 A2999 RMK AO2 SLP153 T01890144

More Conditions Fewer Conditions

10-Day Weather Forecast

Almanac

Astronomy

Jul. 24, 2014 Rise Set
Actual Time 6:02 AM CDT 8:33 PM CDT
Civil Twilight 5:31 AM CDT 9:04 PM CDT
Nautical Twilight 4:53 AM CDT 9:42 PM CDT
Astronomical Twilight 4:09 AM CDT 10:25 PM CDT
Moon 4:11 AM CDT (7/24) 6:48 PM CDT (7/24)
Length of Visible Light 15h 32m
Length of Day
14h 30m
Tomorrow will be 1m 45s shorter.
Waning Crescent, 3% of the Moon is Illuminated
Jul 25
Waning Crescent
Jul 26
New
Aug 3
First Quarter
Aug 10
Full
Aug 17
Last Quarter

Today's Extremes

State Highs State Lows

Community

WunderPhotos

Upload Photos

1,737,242 photos uploaded!

Nearby

Snow Depth

Station Depth Elevation
No new snow has been reported.

Earthquake Activity

City Distance Mag. Time & Date
No recent earthquake activity has been reported nearby.
Minimum magnitude displayed is 2.5.

Coastal Water Temperatures

Place Temperature
No Stations Reporting

Nearby Weather Stations

Station Location Temp. Dew Point Humidity Wind Precip. Elev Updated Type
North Central Missouri, Browning, MO 68.5 °F 61 °F 78% SSW  at  3.0 mph 0.00 in / hr 810 ft 11:24 PM CDT Rapid Fire
Milan, MO 66.2 °F 58 °F 74% South  at  8.7 mph 0.00 in / hr 910 ft 11:24 PM CDT Rapid Fire
La Plata, La Plata, MO 66.6 °F 60 °F 79% East  at  2.2 mph 0.00 in / hr 928 ft 11:24 PM CDT Rapid Fire
Unionville MO, Unionville, MO 68.0 °F 60 °F 76% South  at  6.9 mph 0.00 in / hr 1053 ft 11:24 PM CDT Rapid Fire

Show More Stations Show Fewer Stations